• Join FlightAware (Why Join?)
  • Login
  • US Flag 
12:51PM EDT


 

Airport Tracker/Info


-or-


 

Live Flight TrackerFlight Track Log ✈ AWI4087 ✈ 30-Jul-2013 ✈ KPHL - KCVG

Flight Track Log - Related Links

Times and Time Zones

All times are in EDT time to prevent confusion due to time zone crossing. See the AWI4087 flight status page for this flight to view local times or setup timezone preferences in your user account.

Time Position Orientation Groundspeed Altitude Reporting Facility
EDT Latitude Longitude Course Direction KTS MPH feet Rate Location/Type
07:13AM 39.8667 -75.2833 270° West 164 189 700  Level Philadelphia TRACON
07:14AM 39.8500 -75.3500 252° West 227 261 2,000 1,980 Climbing Philadelphia TRACON
07:15AM 39.8333 -75.4333 255° West 269 310 4,500 2,340 Climbing Philadelphia TRACON
07:16AM 39.9067 -75.6168 285° West  Level FlightAware Approximate
07:17AM 39.9033 -75.7472 258° West  Level FlightAware Approximate
07:18AM 39.9001 -75.8807 270° West  Level FlightAware Approximate
07:18AM 39.8969 -75.6222 294° West 276 318 10,000  Level New York Center
07:19AM 39.9000 -76.0146 270° West  Level FlightAware Approximate
07:19AM 39.9150 -75.7428 281° West 300 345 11,400  Level New York Center
07:20AM 39.9125 -75.8453 268° West 325 374 13,100 1,560 Climbing New York Center
07:21AM 39.9117 -75.9644 270° West 331 381 14,600 1,320 Climbing New York Center
07:22AM 39.9083 -76.0858 268° West 339 390 15,800 1,260 Climbing New York Center
07:23AM 39.9067 -76.2103 269° West 346 398 17,100 1,140 Climbing New York Center
07:24AM 39.9128 -76.3489 273° West 351 404 18,100 1,020 Climbing New York Center
07:25AM 39.9197 -76.4658 274° West 351 404 19,200 1,080 Climbing New York Center
07:26AM 39.9239 -76.5933 272° West 351 404 20,300 960 Climbing New York Center
07:27AM 39.9175 -76.7228 266° West 356 410 21,200 900 Climbing New York Center
07:28AM 39.8208 -76.9314 239° Southwest 360 414 22,800 840 Climbing Washington Center
07:29AM 39.7675 -77.0464 239° Southwest 372 428 23,600 840 Climbing Washington Center
07:30AM 39.7139 -77.1586 238° Southwest 377 434 24,500 1,080 Climbing Washington Center
07:31AM 39.6603 -77.2736 239° Southwest 377 434 25,800 1,080 Climbing Washington Center
07:32AM 39.6086 -77.3828 238° Southwest 377 434 26,700 900 Climbing Washington Center
07:33AM 39.5569 -77.4917 238° Southwest 372 428 27,600 780 Climbing Washington Center
07:34AM 39.5031 -77.6033 238° Southwest 372 428 28,300 720 Climbing Washington Center
07:35AM 39.4511 -77.7122 238° Southwest 367 422 29,100 840 Climbing Washington Center
07:36AM 39.3969 -77.8261 238° Southwest 367 422 30,000 420 Climbing Washington Center
07:37AM 39.3469 -77.9425 241° Southwest 367 422 30,000  Level Washington Center
07:38AM 39.3050 -78.0539 244° Southwest 380 437 30,000  Level Washington Center
07:39AM 39.2547 -78.1756 242° Southwest 385 443 30,000  Level Washington Center
07:40AM 39.2061 -78.2969 243° Southwest 385 443 30,000  Level Washington Center
07:41AM 39.1553 -78.4208 242° Southwest 385 443 30,000  Level Washington Center
07:42AM 39.1067 -78.5419 243° Southwest 390 449 30,000  Level Washington Center
07:43AM 39.0578 -78.6631 243° Southwest 385 443 30,000  Level Washington Center
07:44AM 39.0086 -78.7867 243° Southwest 385 443 30,000  Level Washington Center
07:45AM 38.9594 -78.9072 242° Southwest 385 443 30,000  Level Washington Center
07:46AM 38.9103 -79.0278 242° Southwest 385 443 30,000  Level Washington Center
07:47AM 38.8589 -79.1481 241° Southwest 385 443 30,000  Level Washington Center
07:48AM 38.8403 -79.2778 260° West 368 423 30,000  Level Washington Center
07:49AM 38.8383 -79.4081 269° West 368 423 30,000  Level Washington Center
07:50AM 38.8342 -79.5386 268° West 373 429 30,000  Level Washington Center
07:51AM 38.8336 -79.6797 270° West 381 438 30,000  Level Washington Center
07:53AM 38.8250 -79.8789 267° West 373 429 30,000  Level Indianapolis Center
07:54AM 38.8222 -80.0100 268° West 370 426 30,000  Level Indianapolis Center
07:55AM 38.8186 -80.1428 268° West 372 428 30,000  Level Indianapolis Center
07:56AM 38.8147 -80.2747 268° West 370 426 30,000  Level Indianapolis Center
07:57AM 38.8111 -80.4069 268° West 372 428 30,000  Level Indianapolis Center
07:58AM 38.8078 -80.5389 268° West 371 427 30,000  Level Indianapolis Center
07:59AM 38.8039 -80.6708 268° West 372 428 30,000  Level Indianapolis Center
08:00AM 38.7997 -80.8036 268° West 374 430 30,000  Level Indianapolis Center
08:01AM 38.7947 -80.9617 268° West 370 426 30,000  Level Indianapolis Center
08:02AM 38.7903 -81.0942 268° West 373 429 30,000  Level Indianapolis Center
08:03AM 38.7856 -81.2256 267° West 371 427 30,000  Level Indianapolis Center
08:04AM 38.7814 -81.3572 268° West 372 428 30,000  Level Indianapolis Center
08:05AM 38.7764 -81.4894 267° West 374 430 30,000  Level Indianapolis Center
08:06AM 38.7697 -81.6439 267° West 373 429 30,000  Level Indianapolis Center
08:07AM 38.7653 -81.7758 268° West 376 433 30,000  Level Indianapolis Center
08:08AM 38.7594 -81.9086 267° West 378 435 30,000  Level Indianapolis Center
08:09AM 38.7511 -82.0406 265° West 375 432 30,000  Level Indianapolis Center
08:10AM 38.7175 -82.1708 252° West 383 441 30,000 -240 Level Indianapolis Center
08:11AM 38.6833 -82.2983 251° West 382 440 29,600 -1,080 Descending Indianapolis Center
08:12AM 38.6467 -82.4317 251° West 395 455 27,800 -1,860 Descending Indianapolis Center
08:13AM 38.6025 -82.5953 251° West 406 467 25,800 -1,380 Descending Indianapolis Center
08:14AM 38.5683 -82.7242 251° West 385 443 25,000 -660 Descending Indianapolis Center
08:15AM 38.5333 -82.8494 250° West 377 434 24,500 -660 Descending Indianapolis Center
08:16AM 38.5017 -82.9667 251° West 350 403 23,700 -780 Descending Indianapolis Center
08:17AM 38.4731 -83.0725 251° West 322 371 23,000 -360 Descending Indianapolis Center
08:19AM 38.3942 -83.1683 224° Southwest 347 399 23,000 -780 Level Indianapolis Center
08:20AM 38.3181 -83.2444 218° Southwest 346 398 21,400 -1,740 Descending Indianapolis Center
08:21AM 38.2453 -83.3189 219° Southwest 337 388 19,500 -1,620 Descending Indianapolis Center
08:22AM 38.1994 -83.4172 239° Southwest 349 402 18,200 -1,200 Descending Indianapolis Center
08:23AM 38.2447 -83.5158 300° West 328 377 17,100 -1,260 Descending Indianapolis Center
08:24AM 38.2908 -83.6058 303° West 308 354 15,700 -1,380 Descending Indianapolis Center
08:25AM 38.3369 -83.6917 304° West 298 343 14,300 -1,500 Descending Indianapolis Center
08:26AM 38.3925 -83.7989 303° West 309 356 12,700 -1,500 Descending Indianapolis Center
08:27AM 38.4428 -83.8900 305° West 312 359 11,300 -840 Descending Indianapolis Center
08:28AM 38.5011 -83.9719 312° West 311 358 11,000 -180 Descending Indianapolis Center
08:29AM 38.5594 -84.0511 313° West 308 354 11,000  Level Indianapolis Center
08:30AM 38.6158 -84.1306 312° West 303 349 11,000  Level Indianapolis Center
08:31AM 38.6739 -84.2119 312° West 301 346 11,000  Level Indianapolis Center
08:32AM 38.7297 -84.2936 311° West 301 346 11,000 -300 Level Indianapolis Center
08:33AM 38.7847 -84.3728 312° West 293 337 10,400 -1,020 Descending Indianapolis Center
08:34AM 38.8450 -84.4572 313° West 273 314 9,000 -720 Descending Indianapolis Center
08:35AM 38.8942 -84.5281 312° West 263 303 9,000  Level Indianapolis Center
08:36AM 38.9567 -84.5406 351° North 234 269 9,000 -960 Level Indianapolis Center
08:37AM 39.0219 -84.5447 357° North 232 267 7,100 -1,020 Descending Indianapolis Center
08:38AM 39.0869 -84.5511 356° North 232 267 6,900 -1,020 Descending Indianapolis Center
08:39AM 39.1517 -84.5564 356° North 231 266 5,100 -1,320 Descending Indianapolis Center
08:40AM 39.2172 -84.5619 356° North 233 268 4,200 -540 Descending Indianapolis Center
08:41AM 39.2733 -84.5836 343° North 229 264 4,000 -300 Descending Indianapolis Center
08:42AM 39.2694 -84.6511 266° West 201 231 3,700 -420 Descending Indianapolis Center
08:43AM 39.2106 -84.6689 193° South 197 227 3,200 -540 Descending Indianapolis Center
08:44AM 39.1578 -84.6683 180° South 192 221 2,700 -660 Descending Indianapolis Center
08:46AM 39.0833 -84.6667 179° South 133 153 1,300 -780 Descending Cincinnati TRACON